Time;durP1;ratioP1;P1;durP2;ratioP2;P2;SDS_P1;SDS_P2;PMS_P1;PMS_P2;Temp;Humidity;BMP_temperature;BMP_pressure;BME280_temperature;BME280_humidity;BME280_pressure;Samples;Min_cycle;Max_cycle;Signal;HPM_P1;HPM_P2
2024/02/04 00:01:58;;;;;;;;;;;;;;;7.49;85.87;100023.44;5073688;28;19935;-69
2024/02/04 00:04:27;;;;;;;;;;;;;;;7.48;85.54;100019.19;5073759;28;19920;-70
2024/02/04 00:06:57;;;;;;;;;;;;;;;7.50;85.88;100012.44;5073691;28;20393;-67
2024/02/04 00:09:27;;;;;;;;;;;;;;;7.52;85.58;99998.09;5073736;28;19981;-69
2024/02/04 00:11:58;;;;;;;;;;;;;;;7.53;85.79;99994.75;5073612;28;19967;-68
2024/02/04 00:14:27;;;;;;;;;;;;;;;7.54;85.32;99978.66;5072514;28;20348;-69
2024/02/04 00:16:55;;;;;;;;;;;;;;;7.55;85.24;99985.44;5072742;28;20357;-69
2024/02/04 00:19:24;;;;;;;;;;;;;;;7.53;85.57;99984.56;5073589;28;19924;-69
2024/02/04 00:21:52;;;;;;;;;;;;;;;7.50;85.12;99971.81;5073689;28;19947;-69
2024/02/04 00:24:22;;;;;;;;;;;;;;;7.48;85.66;99968.41;5107498;28;19942;-68
2024/02/04 00:26:51;;;;;;;;;;;;;;;7.48;85.40;99973.50;5116679;28;19920;-68
2024/02/04 00:29:19;;;;;;;;;;;;;;;7.48;85.37;99968.41;5117844;28;19919;-68
2024/02/04 00:31:49;;;;;;;;;;;;;;;7.48;85.57;99965.88;5116186;28;20363;-68
2024/02/04 00:34:17;;;;;;;;;;;;;;;7.49;85.44;99970.09;5116144;28;19969;-69
2024/02/04 00:36:46;;;;;;;;;;;;;;;7.52;85.61;99964.22;5117925;28;20014;-69
2024/02/04 00:39:15;;;;;;;;;;;;;;;7.53;85.49;99965.94;5116172;28;19919;-69
2024/02/04 00:41:45;;;;;;;;;;;;;;;7.55;85.89;99970.22;5117198;28;19924;-69
2024/02/04 00:44:13;;;;;;;;;;;;;;;7.57;85.16;99971.09;5116236;28;20042;-67
2024/02/04 00:46:42;;;;;;;;;;;;;;;7.59;85.33;99977.03;5117071;28;19923;-69
2024/02/04 00:49:11;;;;;;;;;;;;;;;7.61;85.23;99975.38;5117685;28;19927;-69
2024/02/04 00:51:40;;;;;;;;;;;;;;;7.61;84.99;99980.44;5117015;28;19963;-69
2024/02/04 00:54:08;;;;;;;;;;;;;;;7.65;85.60;99977.16;5117015;28;20021;-67
2024/02/04 00:56:39;;;;;;;;;;;;;;;7.66;85.50;99983.94;5099087;28;19919;-68
2024/02/04 00:59:09;;;;;;;;;;;;;;;7.66;85.55;99978.84;5116122;28;19968;-68
2024/02/04 01:01:37;;;;;;;;;;;;;;;7.65;85.49;99969.53;5117295;28;19925;-68
2024/02/04 01:04:06;;;;;;;;;;;;;;;7.64;85.04;99965.28;5117444;28;19920;-69
2024/02/04 01:06:34;;;;;;;;;;;;;;;7.63;85.34;99988.13;5116420;28;20365;-67
2024/02/04 01:09:18;;;;;;;;;;;;;;;7.61;86.18;99992.28;5115909;28;19926;-69
2024/02/04 01:11:47;;;;;;;;;;;;;;;7.58;85.88;99985.50;5116957;28;19927;-69
2024/02/04 01:14:17;;;;;;;;;;;;;;;7.57;86.20;99978.72;5116585;28;20346;-69
2024/02/04 01:16:45;;;;;;;;;;;;;;;7.59;85.80;99976.19;5116582;28;19919;-68
2024/02/04 01:19:14;;;;;;;;;;;;;;;7.60;86.04;99973.69;5116805;28;19920;-68
2024/02/04 01:21:44;;;;;;;;;;;;;;;7.59;86.20;99964.34;5116711;28;19923;-69
2024/02/04 01:24:13;;;;;;;;;;;;;;;7.57;86.30;99962.59;5115235;28;19923;-69
2024/02/04 01:26:41;;;;;;;;;;;;;;;7.51;86.97;99953.19;5115739;28;19970;-67
2024/02/04 01:29:10;;;;;;;;;;;;;;;7.48;86.80;99952.31;5115439;28;20361;-68
2024/02/04 01:31:40;;;;;;;;;;;;;;;7.42;87.02;99950.50;5116615;28;19919;-69
2024/02/04 01:34:08;;;;;;;;;;;;;;;7.41;86.45;99951.38;5115135;28;20010;-68
2024/02/04 01:36:37;;;;;;;;;;;;;;;7.37;87.39;99944.50;5114771;28;19923;-69
2024/02/04 01:39:07;;;;;;;;;;;;;;;7.36;87.06;99942.81;5115683;28;20380;-68
2024/02/04 01:41:36;;;;;;;;;;;;;;;7.32;87.54;99951.19;5115520;28;19919;-69
2024/02/04 01:44:04;;;;;;;;;;;;;;;7.32;86.91;99946.13;5114739;28;19926;-69
2024/02/04 01:46:33;;;;;;;;;;;;;;;7.33;87.40;99942.75;5114778;28;19984;-68
2024/02/04 01:49:03;;;;;;;;;;;;;;;7.29;87.06;99946.09;5114845;28;20389;-69
2024/02/04 01:51:32;;;;;;;;;;;;;;;7.26;87.15;99946.03;5116283;28;19942;-68
2024/02/04 01:54:01;;;;;;;;;;;;;;;7.30;87.46;99947.78;5115885;28;19920;-67
2024/02/04 01:56:29;;;;;;;;;;;;;;;7.33;88.01;99932.59;5115771;28;19920;-68
2024/02/04 01:58:58;;;;;;;;;;;;;;;7.36;87.23;99937.75;5114929;28;20026;-68
2024/02/04 02:01:27;;;;;;;;;;;;;;;7.36;87.68;99942.81;5114591;28;19919;-68
2024/02/04 02:03:57;;;;;;;;;;;;;;;7.36;87.61;99937.75;5097675;28;19927;-69
2024/02/04 02:06:27;;;;;;;;;;;;;;;7.37;86.57;99940.28;5114755;28;19920;-68
2024/02/04 02:08:56;;;;;;;;;;;;;;;7.33;87.21;99930.06;5114703;28;19927;-68
2024/02/04 02:11:36;;;;;;;;;;;;;;;7.35;87.45;99941.97;5115154;28;19919;-69
2024/02/04 02:14:07;;;;;;;;;;;;;;;7.38;87.59;99941.16;5114269;28;20284;-69
2024/02/04 02:16:35;;;;;;;;;;;;;;;7.40;87.48;99936.94;5115742;28;19951;-69
2024/02/04 02:19:10;;;;;;;;;;;;;;;7.41;87.27;99946.28;5115342;28;19924;-69
2024/02/04 02:21:46;;;;;;;;;;;;;;;7.40;87.32;99944.56;5115259;28;19923;-68
2024/02/04 02:24:20;;;;;;;;;;;;;;;7.38;87.30;99926.78;5114317;28;20379;-67
2024/02/04 02:26:50;;;;;;;;;;;;;;;7.41;86.84;99924.25;5114294;28;19927;-69
2024/02/04 02:29:19;;;;;;;;;;;;;;;7.47;87.13;99931.13;5115804;28;19973;-69
2024/02/04 02:31:48;;;;;;;;;;;;;;;7.56;86.81;99930.44;5115453;28;19923;-68
2024/02/04 02:34:18;;;;;;;;;;;;;;;7.56;86.97;99928.72;5114950;28;20327;-69
2024/02/04 02:37:10;;;;;;;;;;;;;;;7.58;86.54;99928.78;5115411;28;19920;-68
2024/02/04 02:39:43;;;;;;;;;;;;;;;7.57;86.30;99933.00;5114191;28;20291;-68
2024/02/04 02:42:14;;;;;;;;;;;;;;;7.57;86.17;99921.97;5115294;28;19927;-68
2024/02/04 02:44:44;;;;;;;;;;;;;;;7.56;85.85;99921.09;5114196;28;20322;-69
2024/02/04 02:47:15;;;;;;;;;;;;;;;7.60;86.86;99927.97;5113732;28;19919;-67
2024/02/04 02:49:43;;;;;;;;;;;;;;;7.61;86.96;99909.34;5115160;28;19924;-69
2024/02/04 02:52:12;;;;;;;;;;;;;;;7.61;86.42;99909.34;5113780;28;19919;-69
2024/02/04 02:54:41;;;;;;;;;;;;;;;7.62;86.11;99915.28;5114850;28;19926;-68
2024/02/04 02:57:10;;;;;;;;;;;;;;;7.61;86.95;99901.72;5113536;28;19968;-69
2024/02/04 02:59:40;;;;;;;;;;;;;;;7.63;86.14;99910.22;5115295;28;19926;-68
2024/02/04 03:02:08;;;;;;;;;;;;;;;7.68;85.95;99908.59;5113723;28;19919;-68
2024/02/04 03:04:37;;;;;;;;;;;;;;;7.67;86.12;99904.38;5114911;28;19920;-69
2024/02/04 03:07:07;;;;;;;;;;;;;;;7.69;86.57;99912.84;5113421;28;20327;-68
2024/02/04 03:09:36;;;;;;;;;;;;;;;7.76;86.05;99912.09;5113632;28;19927;-69
2024/02/04 03:12:04;;;;;;;;;;;;;;;7.77;85.94;99916.38;5115092;28;19953;-68
2024/02/04 03:14:33;;;;;;;;;;;;;;;7.84;85.26;99907.13;5114414;28;19969;-69
2024/02/04 03:17:03;;;;;;;;;;;;;;;7.84;84.90;99918.16;5113611;28;19967;-68
2024/02/04 03:19:32;;;;;;;;;;;;;;;7.84;85.55;99908.00;5114186;28;20353;-68
2024/02/04 03:22:01;;;;;;;;;;;;;;;7.84;85.14;99913.06;5113124;28;20387;-70
2024/02/04 03:24:30;;;;;;;;;;;;;;;7.89;85.03;99911.44;5113172;28;19994;-67
2024/02/04 03:26:59;;;;;;;;;;;;;;;7.91;85.20;99912.31;5113766;28;19926;-68
2024/02/04 03:29:28;;;;;;;;;;;;;;;7.87;85.67;99920.72;5114347;28;19962;-67
2024/02/04 03:31:56;;;;;;;;;;;;;;;7.82;85.37;99924.88;5113139;28;20376;-68
2024/02/04 03:34:27;;;;;;;;;;;;;;;7.85;85.09;99919.84;5114466;28;19920;-68
2024/02/04 03:36:56;;;;;;;;;;;;;;;7.85;85.28;99914.78;5113458;28;19919;-68
2024/02/04 03:39:24;;;;;;;;;;;;;;;7.90;84.49;99925.00;5113466;28;19923;-69
2024/02/04 03:41:53;;;;;;;;;;;;;;;7.93;85.21;99938.59;5095894;28;20346;-69
2024/02/04 03:44:22;;;;;;;;;;;;;;;7.92;85.21;99941.97;5112959;28;19924;-67
2024/02/04 03:46:51;;;;;;;;;;;;;;;7.92;84.88;99931.81;5114202;28;20373;-69
2024/02/04 03:49:19;;;;;;;;;;;;;;;8.00;84.52;99944.63;5114469;28;19926;-68
2024/02/04 03:51:49;;;;;;;;;;;;;;;7.99;85.22;99938.69;5113370;28;19926;-68
2024/02/04 03:54:19;;;;;;;;;;;;;;;8.04;84.62;99924.34;5113163;28;20338;-69
2024/02/04 03:56:48;;;;;;;;;;;;;;;8.02;84.21;99931.09;5114094;28;20022;-69
2024/02/04 03:59:16;;;;;;;;;;;;;;;7.97;84.39;99930.19;5113156;28;19926;-68
2024/02/04 04:01:48;;;;;;;;;;;;;;;7.98;84.48;99920.88;5115901;28;19923;-69
2024/02/04 04:04:17;;;;;;;;;;;;;;;8.02;84.81;99913.31;5118070;27;19926;-69
2024/02/04 04:06:46;;;;;;;;;;;;;;;8.01;83.90;99916.66;5117880;28;19920;-68
2024/02/04 04:09:16;;;;;;;;;;;;;;;7.99;84.33;99918.34;5118223;28;19998;-68
2024/02/04 04:11:44;;;;;;;;;;;;;;;7.96;83.90;99922.56;5117806;28;19923;-69
2024/02/04 04:14:13;;;;;;;;;;;;;;;7.94;84.42;99909.81;5118026;28;19963;-68
2024/02/04 04:16:41;;;;;;;;;;;;;;;8.01;85.27;99901.44;5118596;28;20361;-69
2024/02/04 04:19:10;;;;;;;;;;;;;;;8.10;84.49;99886.31;5118026;28;20010;-69
2024/02/04 04:21:40;;;;;;;;;;;;;;;8.20;83.74;99896.59;5117969;28;19942;-68
2024/02/04 04:24:08;;;;;;;;;;;;;;;8.16;83.53;99887.22;5117589;28;19919;-68
2024/02/04 04:26:38;;;;;;;;;;;;;;;8.14;83.42;99897.34;5117543;28;19926;-67
2024/02/04 04:29:07;;;;;;;;;;;;;;;8.11;84.17;99893.09;5117787;28;19919;-68
2024/02/04 04:31:35;;;;;;;;;;;;;;;8.13;84.66;99894.81;5116502;28;20402;-68
2024/02/04 04:34:04;;;;;;;;;;;;;;;8.09;84.54;99893.91;5118264;28;19919;-69
2024/02/04 04:36:32;;;;;;;;;;;;;;;8.04;83.82;99886.22;5118008;28;19949;-69
2024/02/04 04:39:01;;;;;;;;;;;;;;;8.02;84.10;99882.81;5116524;28;19920;-68
2024/02/04 04:41:29;;;;;;;;;;;;;;;7.98;84.56;99881.06;5117539;28;19942;-68
2024/02/04 04:43:59;;;;;;;;;;;;;;;7.97;84.88;99879.34;5117551;28;19967;-69
2024/02/04 04:46:28;;;;;;;;;;;;;;;7.99;84.89;99882.75;5118238;28;20014;-67
2024/02/04 04:48:58;;;;;;;;;;;;;;;8.02;85.06;99892.97;5117096;28;19919;-67
2024/02/04 04:51:27;;;;;;;;;;;;;;;8.04;84.58;99886.22;5117479;28;19920;-66
2024/02/04 04:53:56;;;;;;;;;;;;;;;8.05;85.53;99898.09;5117608;28;19920;-68
2024/02/04 04:56:24;;;;;;;;;;;;;;;8.04;85.46;99891.31;5117211;28;19950;-69
2024/02/04 04:58:53;;;;;;;;;;;;;;;8.00;85.61;99894.66;5116896;28;19926;-69
2024/02/04 05:01:23;;;;;;;;;;;;;;;7.96;85.72;99892.91;5117137;28;19927;-66
2024/02/04 05:03:51;;;;;;;;;;;;;;;7.95;85.62;99891.19;5117578;28;20028;-68
2024/02/04 05:06:20;;;;;;;;;;;;;;;7.92;85.62;99886.06;5117424;28;19920;-69
2024/02/04 05:08:49;;;;;;;;;;;;;;;7.91;85.40;99893.69;5115907;28;19927;-69
2024/02/04 05:11:17;;;;;;;;;;;;;;;7.90;86.60;99894.50;5116871;28;19923;-69
2024/02/04 05:13:45;;;;;;;;;;;;;;;7.89;85.66;99890.28;5116979;28;19931;-68
2024/02/04 05:16:14;;;;;;;;;;;;;;;7.89;85.82;99893.63;5116650;28;19920;-69
2024/02/04 05:18:44;;;;;;;;;;;;;;;7.93;86.00;99892.88;5116794;28;19920;-68
2024/02/04 05:21:12;;;;;;;;;;;;;;;7.97;85.41;99894.59;5116834;28;19942;-68
2024/02/04 05:23:41;;;;;;;;;;;;;;;8.03;85.44;99902.31;5116267;28;19965;-68
2024/02/04 05:26:10;;;;;;;;;;;;;;;8.01;85.18;99909.03;5115423;28;19919;-67
2024/02/04 05:28:39;;;;;;;;;;;;;;;8.04;85.68;99916.72;5116394;28;19920;-68
2024/02/04 05:31:07;;;;;;;;;;;;;;;8.04;85.99;99916.72;5116268;28;20011;-68
2024/02/04 05:33:36;;;;;;;;;;;;;;;8.07;85.54;99919.31;5116235;28;19920;-68
2024/02/04 05:36:06;;;;;;;;;;;;;;;8.10;86.08;99916.81;5116438;28;20282;-69
2024/02/04 05:38:35;;;;;;;;;;;;;;;8.15;85.96;99928.72;5116510;28;20301;-66
2024/02/04 05:41:03;;;;;;;;;;;;;;;8.22;85.50;99917.78;5115144;28;19927;-68
2024/02/04 05:43:32;;;;;;;;;;;;;;;8.23;84.56;99922.88;5115085;28;19969;-69
2024/02/04 05:46:00;;;;;;;;;;;;;;;8.21;84.81;99921.16;5116006;28;19919;-68
2024/02/04 05:48:29;;;;;;;;;;;;;;;8.15;85.07;99919.41;5116332;28;20023;-69
2024/02/04 05:50:57;;;;;;;;;;;;;;;8.14;85.39;99920.22;5116251;28;19973;-70
2024/02/04 05:53:27;;;;;;;;;;;;;;;8.11;85.42;99923.59;5115280;28;19926;-68
2024/02/04 05:55:56;;;;;;;;;;;;;;;8.07;85.32;99916.78;5115721;28;19955;-67
2024/02/04 05:58:24;;;;;;;;;;;;;;;8.05;85.42;99918.44;5114651;28;19970;-69
2024/02/04 06:00:53;;;;;;;;;;;;;;;8.04;85.13;99931.97;5115954;28;19926;-68
2024/02/04 06:03:21;;;;;;;;;;;;;;;8.04;84.70;99921.81;5115925;28;20385;-69
2024/02/04 06:05:50;;;;;;;;;;;;;;;8.01;85.54;99921.75;5115942;28;19919;-69
2024/02/04 06:08:18;;;;;;;;;;;;;;;7.97;84.80;99909.84;5116185;28;19920;-69
2024/02/04 06:10:48;;;;;;;;;;;;;;;7.96;85.47;99908.16;5115858;28;19988;-68
2024/02/04 06:13:17;;;;;;;;;;;;;;;7.93;84.94;99913.19;5097280;28;20285;-70
2024/02/04 06:15:45;;;;;;;;;;;;;;;7.91;85.59;99925.03;5114262;28;20361;-70
2024/02/04 06:18:14;;;;;;;;;;;;;;;7.90;85.94;99918.22;5116043;28;20281;-69
2024/02/04 06:20:43;;;;;;;;;;;;;;;7.90;86.38;99913.16;5114950;28;19963;-69
2024/02/04 06:23:11;;;;;;;;;;;;;;;7.91;85.48;99925.03;5115338;28;19926;-67
2024/02/04 06:25:40;;;;;;;;;;;;;;;7.95;85.76;99915.75;5115627;28;19926;-68
2024/02/04 06:28:10;;;;;;;;;;;;;;;8.00;86.14;99914.97;5115356;28;19927;-69
2024/02/04 06:30:39;;;;;;;;;;;;;;;8.03;86.43;99922.66;5115292;28;19919;-69
2024/02/04 06:33:07;;;;;;;;;;;;;;;8.02;85.69;99923.47;5114409;28;19920;-68
2024/02/04 06:35:36;;;;;;;;;;;;;;;8.06;86.01;99925.22;5115506;28;20356;-69
2024/02/04 06:38:06;;;;;;;;;;;;;;;8.09;85.68;99924.41;5115618;28;19964;-70
2024/02/04 06:40:34;;;;;;;;;;;;;;;8.09;85.59;99925.25;5115450;28;19942;-68
2024/02/04 06:43:03;;;;;;;;;;;;;;;8.08;85.97;99927.78;5115220;28;19946;-68
2024/02/04 06:45:33;;;;;;;;;;;;;;;8.09;86.11;99930.34;5115519;28;19920;-69
2024/02/04 06:48:02;;;;;;;;;;;;;;;8.13;85.85;99940.56;5114878;28;19926;-69
2024/02/04 06:50:31;;;;;;;;;;;;;;;8.15;85.61;99933.81;5115441;28;19926;-67
2024/02/04 06:52:59;;;;;;;;;;;;;;;8.21;85.74;99933.88;5114825;28;20357;-69
2024/02/04 06:55:28;;;;;;;;;;;;;;;8.25;84.98;99928.00;5114927;28;19920;-68
2024/02/04 06:57:56;;;;;;;;;;;;;;;8.30;84.91;99928.97;5114516;28;20348;-68
2024/02/04 07:00:25;;;;;;;;;;;;;;;8.35;85.56;99922.25;5114653;28;19923;-68
2024/02/04 07:02:55;;;;;;;;;;;;;;;8.45;85.58;99931.66;5113395;28;20375;-67
2024/02/04 07:05:24;;;;;;;;;;;;;;;8.56;85.10;99927.56;5114542;28;19919;-68
2024/02/04 07:07:53;;;;;;;;;;;;;;;8.61;85.13;99931.03;5114950;28;19919;-68
2024/02/04 07:10:22;;;;;;;;;;;;;;;8.62;84.84;99937.78;5115155;28;20422;-67
2024/02/04 07:12:50;;;;;;;;;;;;;;;8.65;84.76;99948.00;5115386;28;19919;-68
2024/02/04 07:15:19;;;;;;;;;;;;;;;8.68;83.71;99948.06;5113374;28;19978;-68
2024/02/04 07:17:47;;;;;;;;;;;;;;;8.69;84.22;99954.84;5114782;28;19972;-68
2024/02/04 07:20:17;;;;;;;;;;;;;;;8.70;83.95;99956.56;5114444;28;20402;-68
2024/02/04 07:22:46;;;;;;;;;;;;;;;8.70;83.69;99951.47;5112785;28;20288;-69
2024/02/04 07:25:14;;;;;;;;;;;;;;;8.67;83.76;99946.34;5114885;28;19920;-68
2024/02/04 07:27:43;;;;;;;;;;;;;;;8.64;83.62;99946.28;5114704;28;19919;-68
2024/02/04 07:30:11;;;;;;;;;;;;;;;8.63;83.82;99954.78;5113472;28;19972;-69
2024/02/04 07:32:40;;;;;;;;;;;;;;;8.68;83.67;99950.59;5114833;28;19920;-68
2024/02/04 07:35:09;;;;;;;;;;;;;;;8.65;83.96;99958.19;5113619;28;19973;-69
2024/02/04 07:37:39;;;;;;;;;;;;;;;8.60;83.81;99949.66;5118546;28;19919;-69
2024/02/04 07:40:08;;;;;;;;;;;;;;;8.57;83.99;99954.69;5118447;28;20006;-68
2024/02/04 07:42:37;;;;;;;;;;;;;;;8.57;83.44;99959.78;5118914;28;20288;-69
2024/02/04 07:45:08;;;;;;;;;;;;;;;8.56;84.23;99947.91;5117569;28;20022;-67
2024/02/04 07:47:37;;;;;;;;;;;;;;;8.57;84.48;99962.31;5118643;28;20014;-69
2024/02/04 07:50:07;;;;;;;;;;;;;;;8.56;83.95;99963.19;5117086;28;19923;-67
2024/02/04 07:52:36;;;;;;;;;;;;;;;8.55;84.15;99969.09;5118587;28;19976;-69
2024/02/04 07:55:06;;;;;;;;;;;;;;;8.54;84.64;99964.84;5118134;28;19927;-68
2024/02/04 07:57:36;;;;;;;;;;;;;;;8.55;84.72;99964.00;5098894;28;19919;-67
2024/02/04 08:00:06;;;;;;;;;;;;;;;8.62;84.63;99973.41;5097741;28;20370;-68
2024/02/04 08:02:40;;;;;;;;;;;;;;;8.80;84.89;99962.59;5079284;28;19942;-68
2024/02/04 08:05:09;;;;;;;;;;;;;;;9.09;84.74;99962.06;5096395;28;20316;-68
2024/02/04 08:07:38;;;;;;;;;;;;;;;9.34;84.29;99958.03;5096646;28;20015;-68
2024/02/04 08:10:09;;;;;;;;;;;;;;;9.39;84.06;99947.06;5097784;28;20038;-67
2024/02/04 08:12:37;;;;;;;;;;;;;;;9.36;83.69;99941.94;5097411;28;19926;-67
2024/02/04 08:15:06;;;;;;;;;;;;;;;9.32;83.43;99939.34;5097743;28;19920;-69
2024/02/04 08:17:35;;;;;;;;;;;;;;;9.26;82.74;99946.94;5097495;28;19926;-68
2024/02/04 08:20:04;;;;;;;;;;;;;;;9.19;82.41;99938.38;5097350;28;19927;-67
2024/02/04 08:22:33;;;;;;;;;;;;;;;9.16;82.55;99933.28;5095946;28;20325;-69
2024/02/04 08:25:02;;;;;;;;;;;;;;;9.17;82.68;99929.88;5096697;28;20293;-66
2024/02/04 08:27:32;;;;;;;;;;;;;;;9.18;82.59;99926.50;5097515;28;19927;-67
2024/02/04 08:30:01;;;;;;;;;;;;;;;9.17;83.21;99929.00;5097129;28;19920;-68
2024/02/04 08:32:30;;;;;;;;;;;;;;;9.15;82.61;99928.16;5097371;28;20018;-69
2024/02/04 08:34:58;;;;;;;;;;;;;;;9.13;82.64;99925.59;5097288;28;19923;-68
2024/02/04 08:37:27;;;;;;;;;;;;;;;9.14;82.69;99931.56;5096846;28;20407;-68
2024/02/04 08:39:56;;;;;;;;;;;;;;;9.17;83.32;99929.88;5097276;28;19981;-68
2024/02/04 08:42:24;;;;;;;;;;;;;;;9.18;82.55;99939.22;5097168;28;19970;-67
2024/02/04 08:44:54;;;;;;;;;;;;;;;9.19;82.81;99935.81;5097173;28;19920;-68
2024/02/04 08:47:23;;;;;;;;;;;;;;;9.21;82.83;99935.88;5097152;28;19927;-69
2024/02/04 08:49:51;;;;;;;;;;;;;;;9.22;82.72;99938.41;5096711;28;19959;-69
2024/02/04 08:52:20;;;;;;;;;;;;;;;9.21;82.90;99931.59;5095920;28;19923;-68
2024/02/04 08:54:49;;;;;;;;;;;;;;;9.21;83.16;99941.78;5095665;28;19927;-68
2024/02/04 08:57:17;;;;;;;;;;;;;;;9.19;82.87;99950.28;5096502;28;19920;-68
2024/02/04 08:59:46;;;;;;;;;;;;;;;9.20;83.29;99965.56;5096121;28;19920;-68
2024/02/04 09:02:16;;;;;;;;;;;;;;;9.23;82.89;99970.69;5096737;28;19920;-68
2024/02/04 09:04:44;;;;;;;;;;;;;;;9.31;82.86;99965.63;5106256;28;20022;-68
2024/02/04 09:07:14;;;;;;;;;;;;;;;9.38;82.56;99952.97;5117389;28;19920;-68
2024/02/04 09:09:42;;;;;;;;;;;;;;;9.51;82.26;99955.63;5114981;28;19920;-68
2024/02/04 09:12:11;;;;;;;;;;;;;;;9.60;82.34;99945.53;5117338;28;19920;-67
2024/02/04 09:14:39;;;;;;;;;;;;;;;9.68;82.11;99943.88;5116695;28;20288;-68
2024/02/04 09:17:09;;;;;;;;;;;;;;;9.74;81.55;99949.03;5116621;28;19966;-69
2024/02/04 09:19:39;;;;;;;;;;;;;;;9.80;81.69;99938.84;5116538;28;19919;-68
2024/02/04 09:22:10;;;;;;;;;;;;;;;9.90;81.27;99950.81;5116755;28;19969;-68
2024/02/04 09:24:39;;;;;;;;;;;;;;;10.05;81.26;99945.81;5116309;28;19920;-68
2024/02/04 09:27:07;;;;;;;;;;;;;;;10.28;80.43;99946.81;5115997;28;20369;-69
2024/02/04 09:29:36;;;;;;;;;;;;;;;10.52;79.52;99943.50;5096071;28;19927;-68
2024/02/04 09:32:05;;;;;;;;;;;;;;;10.71;78.59;99941.00;5096207;28;19920;-68
2024/02/04 09:34:34;;;;;;;;;;;;;;;10.80;78.01;99934.25;5095811;28;19927;-69
2024/02/04 09:37:04;;;;;;;;;;;;;;;10.91;76.95;99922.34;5095879;28;19927;-68
2024/02/04 09:39:33;;;;;;;;;;;;;;;11.03;76.73;99933.44;5094237;28;19926;-68
2024/02/04 09:42:02;;;;;;;;;;;;;;;11.12;76.27;99935.13;5095961;28;19926;-68
2024/02/04 09:44:32;;;;;;;;;;;;;;;11.11;75.84;99931.72;5095896;28;19926;-67
2024/02/04 09:47:00;;;;;;;;;;;;;;;11.13;75.37;99934.28;5095921;28;20281;-69
2024/02/04 09:49:30;;;;;;;;;;;;;;;11.10;74.99;99944.50;5095886;28;19927;-69
2024/02/04 09:52:00;;;;;;;;;;;;;;;11.07;74.79;99939.38;5094734;28;19959;-69
2024/02/04 09:54:32;;;;;;;;;;;;;;;11.10;74.85;99953.03;5095536;28;20266;-68
2024/02/04 09:57:01;;;;;;;;;;;;;;;11.05;74.73;99943.63;5094439;28;19920;-68
2024/02/04 09:59:30;;;;;;;;;;;;;;;11.05;74.64;99949.59;5094771;28;19919;-68
2024/02/04 10:01:59;;;;;;;;;;;;;;;11.08;74.54;99953.88;5095695;28;19926;-68
2024/02/04 10:04:27;;;;;;;;;;;;;;;11.11;74.42;99941.09;5095543;28;19953;-68
2024/02/04 10:06:56;;;;;;;;;;;;;;;11.08;74.37;99928.31;5095583;28;19920;-69
2024/02/04 10:09:26;;;;;;;;;;;;;;;11.06;74.38;99919.81;5094181;28;20018;-68
2024/02/04 10:11:56;;;;;;;;;;;;;;;11.03;74.02;99927.47;5077317;28;19920;-68
2024/02/04 10:14:25;;;;;;;;;;;;;;;10.99;74.08;99924.03;5095434;28;19923;-68
2024/02/04 10:16:53;;;;;;;;;;;;;;;10.97;73.81;99927.44;5094174;28;19966;-68
2024/02/04 10:19:25;;;;;;;;;;;;;;;10.98;74.01;99907.03;5095150;28;19959;-69
2024/02/04 10:22:01;;;;;;;;;;;;;;;11.02;74.16;99912.97;5095076;28;20395;-68
2024/02/04 10:24:29;;;;;;;;;;;;;;;11.02;74.42;99907.88;5095124;28;19927;-68
2024/02/04 10:26:59;;;;;;;;;;;;;;;10.98;74.26;99888.28;5095079;28;20369;-68
2024/02/04 10:29:28;;;;;;;;;;;;;;;10.98;74.13;99893.41;5095093;28;19924;-67
2024/02/04 10:31:57;;;;;;;;;;;;;;;10.97;74.06;99886.59;5095226;28;19920;-67
2024/02/04 10:34:27;;;;;;;;;;;;;;;10.94;73.89;99886.59;5095431;28;20274;-69
2024/02/04 10:36:55;;;;;;;;;;;;;;;10.90;74.01;99879.75;5110185;28;20414;-69
2024/02/04 10:39:24;;;;;;;;;;;;;;;10.91;73.90;99874.69;5115536;28;20361;-68
2024/02/04 10:41:53;;;;;;;;;;;;;;;10.99;73.99;99856.81;5114899;28;19923;-68
2024/02/04 10:44:24;;;;;;;;;;;;;;;11.07;73.66;99870.41;5115207;28;19927;-68
2024/02/04 10:46:55;;;;;;;;;;;;;;;11.07;73.75;99868.72;5115325;28;19973;-68
2024/02/04 10:49:27;;;;;;;;;;;;;;;11.09;73.34;99868.72;5112999;28;20293;-68
2024/02/04 10:51:57;;;;;;;;;;;;;;;11.10;72.96;99871.28;5115153;28;19968;-68
2024/02/04 10:54:27;;;;;;;;;;;;;;;11.12;72.88;99861.06;5114884;28;19949;-69
2024/02/04 10:56:57;;;;;;;;;;;;;;;11.08;72.78;99869.59;5114731;28;19920;-69
2024/02/04 10:59:29;;;;;;;;;;;;;;;10.70;72.32;99809.13;5112686;28;19973;-67
2024/02/04 11:01:58;;;;;;;;;;;;;;;11.03;72.57;99864.47;5114667;28;19968;-68
2024/02/04 11:04:28;;;;;;;;;;;;;;;11.03;72.38;99850.84;5114950;28;19920;-67
2024/02/04 11:06:57;;;;;;;;;;;;;;;11.04;72.02;99848.28;5114940;28;20029;-68
2024/02/04 11:09:27;;;;;;;;;;;;;;;11.03;72.07;99845.75;5114411;28;19919;-68
2024/02/04 11:11:57;;;;;;;;;;;;;;;11.02;72.01;99851.69;5115073;28;19919;-67
2024/02/04 11:14:28;;;;;;;;;;;;;;;11.02;71.99;99838.91;5114832;28;19926;-68
2024/02/04 11:17:07;;;;;;;;;;;;;;;10.99;72.08;99839.75;5114888;28;20490;-68
2024/02/04 11:19:42;;;;;;;;;;;;;;;10.98;72.47;99827.00;5113290;28;20018;-68
2024/02/04 11:22:18;;;;;;;;;;;;;;;10.95;72.92;99844.88;5114419;28;20361;-68
2024/02/04 11:24:57;;;;;;;;;;;;;;;10.88;73.12;99840.63;5114585;28;20362;-67
2024/02/04 11:27:26;;;;;;;;;;;;;;;10.83;73.12;99842.31;5113500;28;19920;-69
2024/02/04 11:29:57;;;;;;;;;;;;;;;10.81;72.87;99829.56;5114631;28;20361;-69
2024/02/04 11:32:25;;;;;;;;;;;;;;;10.79;73.18;99826.16;5114942;28;20331;-67
2024/02/04 11:34:54;;;;;;;;;;;;;;;10.75;73.29;99830.41;5114769;28;20327;-67
2024/02/04 11:37:25;;;;;;;;;;;;;;;10.76;72.93;99821.91;5114540;28;20365;-68
2024/02/04 11:39:55;;;;;;;;;;;;;;;10.73;73.30;99837.22;5114479;28;19926;-68
2024/02/04 11:42:24;;;;;;;;;;;;;;;10.72;73.35;99832.94;5114056;28;19947;-68
2024/02/04 11:45:08;;;;;;;;;;;;;;;10.71;73.64;99838.91;5114316;28;19919;-68
2024/02/04 11:47:38;;;;;;;;;;;;;;;10.73;73.87;99833.78;5114178;28;19919;-67
2024/02/04 11:50:09;;;;;;;;;;;;;;;10.71;73.96;99854.22;5114400;28;20315;-68
2024/02/04 11:52:41;;;;;;;;;;;;;;;10.68;74.12;99853.34;5112306;28;19920;-68
2024/02/04 11:55:14;;;;;;;;;;;;;;;10.67;74.32;99849.97;5114405;28;19959;-68
2024/02/04 11:57:42;;;;;;;;;;;;;;;10.68;74.41;99841.44;5114486;28;19992;-68
2024/02/04 12:00:12;;;;;;;;;;;;;;;10.71;73.78;99838.06;5112659;28;19973;-68
2024/02/04 12:02:42;;;;;;;;;;;;;;;10.70;73.98;99821.88;5114370;28;19969;-68
2024/02/04 12:05:11;;;;;;;;;;;;;;;10.75;73.78;99820.19;5114060;28;19963;-69
2024/02/04 12:07:41;;;;;;;;;;;;;;;10.80;73.91;99822.72;5113023;28;19923;-68
2024/02/04 12:10:13;;;;;;;;;;;;;;;10.88;73.60;99825.28;5114707;28;19974;-68
2024/02/04 12:12:41;;;;;;;;;;;;;;;10.96;73.66;99823.59;5113879;28;19969;-68
2024/02/04 12:15:10;;;;;;;;;;;;;;;11.03;73.61;99821.06;5114277;28;19923;-68
2024/02/04 12:17:39;;;;;;;;;;;;;;;11.07;73.49;99809.97;5113940;28;19920;-67
2024/02/04 12:20:09;;;;;;;;;;;;;;;11.10;73.25;99804.00;5113771;28;19920;-68
2024/02/04 12:22:38;;;;;;;;;;;;;;;11.13;73.55;99798.91;5116199;28;19920;-68
2024/02/04 12:25:07;;;;;;;;;;;;;;;11.18;73.47;99784.44;5117883;28;19920;-68
2024/02/04 12:27:36;;;;;;;;;;;;;;;11.27;73.33;99771.63;5117576;28;20365;-67
2024/02/04 12:30:06;;;;;;;;;;;;;;;11.35;73.19;99773.31;5117753;28;19927;-68
2024/02/04 12:32:34;;;;;;;;;;;;;;;11.43;72.96;99770.75;5117482;28;19969;-68
2024/02/04 12:35:03;;;;;;;;;;;;;;;11.49;72.62;99767.31;5117416;28;20266;-67
2024/02/04 12:37:34;;;;;;;;;;;;;;;11.54;72.19;99779.22;5117341;28;19926;-67
2024/02/04 12:40:03;;;;;;;;;;;;;;;11.61;72.58;99763.03;5117709;28;19919;-68
2024/02/04 12:42:31;;;;;;;;;;;;;;;11.60;71.96;99753.66;5117392;28;20322;-68
2024/02/04 12:45:01;;;;;;;;;;;;;;;11.61;71.68;99745.13;5117619;28;20285;-68
2024/02/04 12:47:29;;;;;;;;;;;;;;;11.60;71.89;99738.31;5117474;28;20373;-68
2024/02/04 12:50:02;;;;;;;;;;;;;;;11.56;71.64;99736.63;5117373;28;19919;-68
2024/02/04 12:52:35;;;;;;;;;;;;;;;11.57;71.65;99733.19;5115918;28;19930;-68
2024/02/04 12:55:05;;;;;;;;;;;;;;;11.57;71.54;99727.22;5115894;28;19919;-68
2024/02/04 12:57:34;;;;;;;;;;;;;;;11.53;71.72;99716.19;5103688;28;20292;-69
2024/02/04 13:00:08;;;;;;;;;;;;;;;11.52;71.78;99719.59;5094814;28;19926;-69
2024/02/04 13:02:38;;;;;;;;;;;;;;;11.52;72.14;99709.34;5096851;28;19928;-68
2024/02/04 13:05:07;;;;;;;;;;;;;;;11.52;72.43;99703.41;5096400;28;19924;-68